createdAt,value
2018-06-16T00:03:48.876Z,49.51
2018-06-16T00:07:52.574Z,49.58
2018-06-16T00:11:55.958Z,49.86
2018-06-16T00:15:59.397Z,50.48
2018-06-16T00:20:02.844Z,50.49
2018-06-16T00:24:06.261Z,49.90
2018-06-16T00:28:09.698Z,49.77
2018-06-16T00:32:13.090Z,50.42
2018-06-16T00:36:16.553Z,50.92
2018-06-16T00:40:19.984Z,50.31
2018-06-16T00:44:23.396Z,50.58
2018-06-16T00:48:26.820Z,50.99
2018-06-16T00:52:30.258Z,50.94
2018-06-16T00:56:33.662Z,50.52
2018-06-16T01:00:37.121Z,50.65
2018-06-16T01:04:40.544Z,50.75
2018-06-16T01:08:43.982Z,51.03
2018-06-16T01:12:47.429Z,50.55
2018-06-16T01:16:50.880Z,50.68
2018-06-16T01:20:54.383Z,50.27
2018-06-16T01:24:57.820Z,51.09
2018-06-16T01:29:01.276Z,50.66
2018-06-16T01:33:04.668Z,50.74
2018-06-16T01:37:08.107Z,50.77
2018-06-16T01:41:11.549Z,50.44
2018-06-16T01:45:14.970Z,50.57
2018-06-16T01:49:18.365Z,50.91
2018-06-16T01:53:21.873Z,50.89
2018-06-16T01:57:25.290Z,50.37
2018-06-16T02:01:28.717Z,50.49
2018-06-16T02:05:32.150Z,50.64
2018-06-16T02:09:35.570Z,50.72
2018-06-16T02:13:39.031Z,50.84
2018-06-16T02:17:42.469Z,50.86
2018-06-16T02:21:45.896Z,50.87
2018-06-16T02:25:49.339Z,50.69
2018-06-16T02:29:52.743Z,51.05
2018-06-16T02:33:56.658Z,51.02
2018-06-16T02:38:00.150Z,51.68
2018-06-16T02:42:03.543Z,51.75
2018-06-16T02:46:07.001Z,51.92
2018-06-16T02:50:10.549Z,51.84
2018-06-16T02:54:13.915Z,51.98
2018-06-16T02:58:17.375Z,52.17
2018-06-16T03:02:20.801Z,52.18
2018-06-16T03:06:24.241Z,52.45
2018-06-16T03:10:27.704Z,52.52
2018-06-16T03:14:31.134Z,52.29
2018-06-16T03:18:34.557Z,52.80
2018-06-16T03:22:37.978Z,52.79
2018-06-16T03:26:41.404Z,52.72
2018-06-16T03:30:44.843Z,52.57
2018-06-16T03:34:48.280Z,52.64
2018-06-16T03:38:51.719Z,53.05
2018-06-16T03:42:55.128Z,53.00
2018-06-16T03:46:58.567Z,53.19
2018-06-16T03:51:02.017Z,53.45
2018-06-16T03:55:05.459Z,53.25
2018-06-16T03:59:09.735Z,53.42
2018-06-16T04:03:13.186Z,53.10
2018-06-16T04:07:16.630Z,53.58
2018-06-16T04:11:20.080Z,53.83
2018-06-16T04:15:23.517Z,54.16
2018-06-16T04:19:26.991Z,54.00
2018-06-16T04:23:30.407Z,53.91
2018-06-16T04:27:33.795Z,54.11
2018-06-16T04:31:37.225Z,53.67
2018-06-16T04:35:40.674Z,54.24
2018-06-16T04:39:44.213Z,54.16
2018-06-16T04:43:47.657Z,54.11
2018-06-16T04:47:51.086Z,53.74
2018-06-16T04:51:54.514Z,53.48
2018-06-16T04:55:57.947Z,53.35
2018-06-16T05:00:01.389Z,53.11
2018-06-16T05:04:04.798Z,52.72
2018-06-16T05:08:08.246Z,52.32
2018-06-16T05:12:11.651Z,51.13
2018-06-16T05:16:15.120Z,51.46
2018-06-16T05:20:18.592Z,51.03
2018-06-16T05:24:22.018Z,49.78
2018-06-16T05:28:25.461Z,50.19
2018-06-16T05:32:28.859Z,49.81
2018-06-16T05:36:32.330Z,50.73
2018-06-16T05:40:35.780Z,50.03
2018-06-16T05:44:39.240Z,48.83
2018-06-16T05:48:42.716Z,48.85
2018-06-16T05:52:46.155Z,48.82
2018-06-16T05:56:49.648Z,49.01
2018-06-16T06:00:53.090Z,49.14
2018-06-16T06:04:56.583Z,48.91
2018-06-16T06:09:00.028Z,48.26
2018-06-16T06:13:03.547Z,48.66
2018-06-16T06:17:07.015Z,48.78
2018-06-16T06:21:10.449Z,48.69
2018-06-16T06:25:13.912Z,48.98
2018-06-16T06:29:17.364Z,48.11
2018-06-16T06:33:20.833Z,49.08
2018-06-16T06:37:24.247Z,48.85
2018-06-16T06:41:27.676Z,48.30
2018-06-16T06:45:31.198Z,48.19
2018-06-16T06:49:34.655Z,49.04
2018-06-16T06:53:38.050Z,47.66
2018-06-16T06:57:41.486Z,48.04
2018-06-16T07:01:44.923Z,47.91
2018-06-16T07:05:48.331Z,48.18
2018-06-16T07:09:51.826Z,48.44
2018-06-16T07:13:55.214Z,47.99
2018-06-16T07:17:58.652Z,47.22
2018-06-16T07:22:02.105Z,46.96
2018-06-16T07:26:05.618Z,45.48
2018-06-16T07:30:09.044Z,46.53
2018-06-16T07:34:12.555Z,47.11
2018-06-16T07:38:15.980Z,46.47
2018-06-16T07:42:19.448Z,45.73
2018-06-16T07:46:22.879Z,45.62
2018-06-16T07:50:26.340Z,44.50
2018-06-16T07:54:29.849Z,44.55
2018-06-16T07:58:33.352Z,44.48
2018-06-16T08:02:36.911Z,43.54
2018-06-16T08:06:40.318Z,43.98
2018-06-16T08:10:43.800Z,43.49
2018-06-16T08:14:47.378Z,44.66
2018-06-16T08:18:50.784Z,43.13
2018-06-16T08:22:54.235Z,43.29
2018-06-16T08:26:57.670Z,43.19
2018-06-16T08:31:01.091Z,43.89
2018-06-16T08:35:04.566Z,43.21
2018-06-16T08:39:09.839Z,42.79
2018-06-16T08:43:13.438Z,43.07
2018-06-16T08:47:17.268Z,42.85
2018-06-16T08:51:20.672Z,43.50
2018-06-16T08:55:24.191Z,41.72
2018-06-16T08:59:27.599Z,40.97
2018-06-16T09:03:31.014Z,41.24
2018-06-16T09:07:34.457Z,40.50
2018-06-16T09:11:44.583Z,42.08
2018-06-16T09:15:48.005Z,41.04
2018-06-16T09:19:51.459Z,40.92
2018-06-16T09:23:54.884Z,39.20
2018-06-16T09:27:58.348Z,37.64
2018-06-16T09:32:01.786Z,37.70
2018-06-16T09:36:05.212Z,38.09
2018-06-16T09:40:08.638Z,37.15
2018-06-16T09:44:12.065Z,38.28
2018-06-16T09:48:15.525Z,37.69
2018-06-16T09:52:18.942Z,37.17
2018-06-16T09:56:22.495Z,37.56
2018-06-16T10:00:31.221Z,38.19
2018-06-16T10:04:34.670Z,38.34
2018-06-16T10:08:38.406Z,38.31
2018-06-16T10:12:41.849Z,38.18
2018-06-16T10:16:45.271Z,36.62
2018-06-16T10:20:48.707Z,35.22
2018-06-16T10:24:52.216Z,35.46
2018-06-16T10:28:55.666Z,34.92
2018-06-16T10:32:59.165Z,33.34
2018-06-16T10:37:02.650Z,34.71
2018-06-16T10:41:06.207Z,33.49
2018-06-16T10:45:09.634Z,34.55
2018-06-16T10:49:13.066Z,33.83
2018-06-16T10:53:16.551Z,34.81
2018-06-16T10:57:19.943Z,34.84
2018-06-16T11:01:23.488Z,35.02
2018-06-16T11:05:26.900Z,34.60
2018-06-16T11:09:30.319Z,34.62
2018-06-16T11:13:33.754Z,34.70
2018-06-16T11:17:37.233Z,35.44
2018-06-16T11:21:40.681Z,36.75
2018-06-16T11:25:44.132Z,35.64
2018-06-16T11:29:47.590Z,36.15
2018-06-16T11:33:51.043Z,36.46
2018-06-16T11:37:54.493Z,37.14
2018-06-16T11:41:57.909Z,37.17
2018-06-16T11:46:01.325Z,36.53
2018-06-16T11:50:04.780Z,36.23
2018-06-16T11:54:08.180Z,36.79
2018-06-16T11:58:11.854Z,37.70
2018-06-16T12:02:15.290Z,37.88
2018-06-16T12:06:18.700Z,38.25
2018-06-16T12:10:22.204Z,39.88
2018-06-16T12:14:25.649Z,39.69
2018-06-16T12:18:29.106Z,40.37
2018-06-16T12:22:32.547Z,39.85
2018-06-16T12:26:36.013Z,40.74
2018-06-16T12:30:40.406Z,40.27
2018-06-16T12:34:43.837Z,39.58
2018-06-16T12:38:47.278Z,40.46
2018-06-16T12:42:50.849Z,40.34
2018-06-16T12:46:54.259Z,40.63
2018-06-16T12:50:57.747Z,40.75
2018-06-16T12:55:01.133Z,41.35
2018-06-16T12:59:04.626Z,40.97
2018-06-16T13:03:08.091Z,40.35
2018-06-16T13:07:11.497Z,41.46
2018-06-16T13:11:15.026Z,40.73
2018-06-16T13:15:18.651Z,40.82
2018-06-16T13:19:22.114Z,42.84
2018-06-16T13:23:25.552Z,43.03
2018-06-16T13:27:28.985Z,42.13
2018-06-16T13:31:32.392Z,42.13
2018-06-16T13:35:35.896Z,42.19
2018-06-16T13:39:39.332Z,41.05
2018-06-16T13:43:42.730Z,42.13
2018-06-16T13:47:46.166Z,42.07
2018-06-16T13:51:49.606Z,41.78
2018-06-16T13:55:53.052Z,41.46
2018-06-16T13:59:56.487Z,41.61
2018-06-16T14:03:59.923Z,40.66
2018-06-16T14:08:03.342Z,41.26
2018-06-16T14:12:06.814Z,41.30
2018-06-16T14:16:10.242Z,40.57
2018-06-16T14:20:13.629Z,41.15
2018-06-16T14:24:17.053Z,41.37
2018-06-16T14:28:20.525Z,42.20
2018-06-16T14:32:23.945Z,41.48
2018-06-16T14:36:27.385Z,41.98
2018-06-16T14:40:30.814Z,40.40
2018-06-16T14:44:34.245Z,41.42
2018-06-16T14:48:37.667Z,40.14
2018-06-16T14:52:41.097Z,40.55
2018-06-16T14:56:44.537Z,40.44
2018-06-16T15:00:47.993Z,40.80
2018-06-16T15:04:51.455Z,40.46
2018-06-16T15:08:55.021Z,40.59
2018-06-16T15:12:58.464Z,40.66
2018-06-16T15:17:01.917Z,41.68
2018-06-16T15:21:05.431Z,41.51
2018-06-16T15:25:08.865Z,41.99
2018-06-16T15:29:12.280Z,41.78
2018-06-16T15:33:15.714Z,41.75
2018-06-16T15:37:19.256Z,40.50
2018-06-16T15:41:22.769Z,40.61
2018-06-16T15:45:26.172Z,39.92
2018-06-16T15:49:29.606Z,39.90
2018-06-16T15:53:33.044Z,40.63
2018-06-16T15:57:36.500Z,40.24
2018-06-16T16:01:39.963Z,40.09
2018-06-16T16:05:43.429Z,40.19
2018-06-16T16:09:46.848Z,39.75
2018-06-16T16:13:50.264Z,39.66
2018-06-16T16:17:53.794Z,39.98
2018-06-16T16:21:57.248Z,39.42
2018-06-16T16:26:00.680Z,40.17
2018-06-16T16:30:04.154Z,41.27
2018-06-16T16:34:07.612Z,41.17
2018-06-16T16:38:11.069Z,41.43
2018-06-16T16:42:14.491Z,41.63
2018-06-16T16:46:18.032Z,41.76
2018-06-16T16:50:21.422Z,40.33
2018-06-16T16:54:24.862Z,40.84
2018-06-16T16:58:28.319Z,41.98
2018-06-16T17:02:31.742Z,41.45
2018-06-16T17:06:35.381Z,42.01
2018-06-16T17:10:38.836Z,41.23
2018-06-16T17:14:42.294Z,41.63
2018-06-16T17:18:45.691Z,41.24
2018-06-16T17:22:49.177Z,41.62
2018-06-16T17:26:52.786Z,40.87
2018-06-16T17:30:56.174Z,40.87
2018-06-16T17:34:59.633Z,40.98
2018-06-16T17:39:03.138Z,42.29
2018-06-16T17:43:06.604Z,42.73
2018-06-16T17:47:10.034Z,42.83
2018-06-16T17:51:13.499Z,42.96
2018-06-16T17:55:16.927Z,43.42
2018-06-16T17:59:20.391Z,43.68
2018-06-16T18:03:23.950Z,43.20
2018-06-16T18:07:27.417Z,44.35
2018-06-16T18:11:30.820Z,43.68
2018-06-16T18:15:34.239Z,44.74
2018-06-16T18:19:37.672Z,44.40
2018-06-16T18:23:41.116Z,44.62
2018-06-16T18:27:44.534Z,45.06
2018-06-16T18:31:47.938Z,44.95
2018-06-16T18:35:51.383Z,44.66
2018-06-16T18:39:55.052Z,44.68
2018-06-16T18:43:58.485Z,45.21
2018-06-16T18:48:01.938Z,45.17
2018-06-16T18:52:05.358Z,44.61
2018-06-16T18:56:08.784Z,45.04
2018-06-16T19:00:12.213Z,45.02
2018-06-16T19:04:15.714Z,44.25
2018-06-16T19:08:19.146Z,45.34
2018-06-16T19:12:22.542Z,45.23
2018-06-16T19:16:26.093Z,44.43
2018-06-16T19:20:29.524Z,45.23
2018-06-16T19:24:32.948Z,44.71
2018-06-16T19:28:36.383Z,45.03
2018-06-16T19:32:39.812Z,45.13
2018-06-16T19:36:43.253Z,45.17
2018-06-16T19:40:46.680Z,45.77
2018-06-16T19:44:50.085Z,46.16
2018-06-16T19:48:53.699Z,46.29
2018-06-16T19:52:57.137Z,46.51
2018-06-16T19:57:00.608Z,46.53
2018-06-16T20:01:04.006Z,46.89
2018-06-16T20:05:07.447Z,46.78
2018-06-16T20:09:10.883Z,47.30
2018-06-16T20:13:14.316Z,47.44
2018-06-16T20:17:17.781Z,47.51
2018-06-16T20:21:21.171Z,46.86
2018-06-16T20:25:24.619Z,47.31
2018-06-16T20:29:28.210Z,48.14
2018-06-16T20:33:31.674Z,48.24
2018-06-16T20:37:35.158Z,48.30
2018-06-16T20:41:38.566Z,48.58
2018-06-16T20:45:42.023Z,48.39
2018-06-16T20:49:45.454Z,48.26
2018-06-16T20:53:48.891Z,48.65
2018-06-16T20:57:52.335Z,48.68
2018-06-16T21:01:55.755Z,48.51
2018-06-16T21:05:59.200Z,48.46
2018-06-16T21:10:02.623Z,49.13
2018-06-16T21:14:06.217Z,49.18
2018-06-16T21:18:09.709Z,49.40
2018-06-16T21:22:13.143Z,49.64
2018-06-16T21:26:16.645Z,49.64
2018-06-16T21:30:20.078Z,49.42
2018-06-16T21:34:23.539Z,48.79
2018-06-16T21:38:26.958Z,49.28
2018-06-16T21:42:30.372Z,49.22
2018-06-16T21:46:33.861Z,50.07
2018-06-16T21:50:37.336Z,49.43
2018-06-16T21:54:40.799Z,49.96
2018-06-16T21:58:44.248Z,49.38
2018-06-16T22:02:47.697Z,49.35
2018-06-16T22:06:51.127Z,50.15
2018-06-16T22:10:54.569Z,50.31
2018-06-16T22:14:58.082Z,49.94
2018-06-16T22:19:01.504Z,49.79
2018-06-16T22:23:04.986Z,50.15
2018-06-16T22:27:08.401Z,50.08
2018-06-16T22:31:11.842Z,50.66
2018-06-16T22:35:15.277Z,50.02
2018-06-16T22:39:18.738Z,49.82
2018-06-16T22:43:22.130Z,49.94
2018-06-16T22:47:25.601Z,50.54
2018-06-16T22:51:29.037Z,50.38
2018-06-16T22:55:32.498Z,50.57
2018-06-16T22:59:35.877Z,50.53
2018-06-16T23:03:39.558Z,50.47
2018-06-16T23:07:43.039Z,51.06
2018-06-16T23:11:46.478Z,50.44
2018-06-16T23:15:49.956Z,50.89
2018-06-16T23:19:53.398Z,50.58
2018-06-16T23:23:56.838Z,50.84
2018-06-16T23:28:00.235Z,51.07
2018-06-16T23:32:03.666Z,51.30
2018-06-16T23:36:07.109Z,50.79
2018-06-16T23:40:10.530Z,50.71
2018-06-16T23:44:13.966Z,51.27
2018-06-16T23:48:17.366Z,50.97
2018-06-16T23:52:20.807Z,51.64
2018-06-16T23:56:24.233Z,51.50
